Weather observations for the past three days for
Knoxville
Metric (Imperial)
Date Time (cdt) Wind (kph) Vis. (km) Weather Sky Cond. Temperature (ºC) Relative Humidity Wind Chill (°C) Heat Index (°C) Pressure Precipitation (cm)
Air Dwpt 6 hour altimeter (cm) sea level (mb) 1 hr 3 hr 6 hr
Max. Min.
07 05:00 S 9 16.09 Overcast BKN080 OVC090 6 -1 61% 4 76.02 0.0
07 04:35 S 13 16.09 Overcast OVC085 6 -2 57% 4 76.05 0.0
07 04:15 S 11 16.09 Overcast OVC090 5 -2 61% 3 76.05 0.0
07 03:55 S 13 16.09 Overcast OVC095 5 -2 61% 2 76.07 0.0
07 03:35 S 11 16.09 Overcast BKN090 OVC110 5 -3 57% 3 76.07 0.0
07 03:15 S 11 16.09 Mostly Cloudy FEW090 BKN110 5 -3 57% 3 76.1 0.0
07 02:55 S 11 16.09 Overcast OVC100 5 -3 57% 3 76.1 0.0
07 02:35 S 13 16.09 Overcast OVC100 5 -3 57% 2 76.12 0.0
07 02:15 S 13 16.09 Mostly Cloudy BKN100 5 -3 57% 2 76.12 0.0
07 01:55 S 13 16.09 Fair CLR 5 -3 57% 2 76.15 0.0
07 00:50 S 11 16.09 Fair CLR 5 -3 57% 3 76.17 0.0
07 00:35 S 9 16.09 Fair CLR 6 -3 53% 4 76.2 0.0
06 23:15 SW 9 16.09 Fair CLR 7 -4 46% 5 76.23 0.0
06 22:55 S 9 16.09 Fair CLR 7 -4 46% 5 76.23 0.0
06 22:40 S 9 16.09 Fair CLR 6 -1 61% 4 76.23 0.0
06 22:15 SW 7 16.09 Fair CLR 8 -3 46% 7 76.23 0.0
06 21:55 Calm 16.09 Fair CLR 9 -5 37% 76.23 0.0
06 21:35 Calm 16.09 Fair CLR 9 -5 37% 76.23 0.0
06 21:15 Calm 16.09 Fair CLR 10 -6 32% 76.23 0.0
06 20:55 Calm 16.09 Fair CLR 11 -6 30% 76.23 0.0
06 20:35 NW 6 16.09 Fair CLR 11 -6 30% 76.2 0.0
06 20:15 NW 6 16.09 Fair CLR 11 -5 32% 76.2 0.0
06 19:55 NW 9 16.09 Fair CLR 12 -5 30% 76.2 0.0
06 19:35 NW 13 G 26 16.09 Fair CLR 13 -6 26% 76.2 0.0
06 19:15 NW 15 16.09 Fair CLR 13 -6 26% 76.23 0.0
06 18:55 NW 17 16.09 Fair CLR 13 -5 28% 76.23 0.0
06 18:35 NW 19 14.48 A Few Clouds FEW085 13 -6 26% 76.23 0.0
06 18:15 NW 19 G 30 16.09 Partly Cloudy SCT085 14 -5 27% 76.23 0.0
06 17:55 W 31 16.09 Partly Cloudy SCT080 14 -6 25% 76.25 0.0
06 17:35 NW 22 16.09 A Few Clouds FEW080 14 -7 23% 76.23 0.0
06 17:15 NW 26 16.09 A Few Clouds FEW080 14 -5 27% 76.25 0.0
06 16:55 NW 19 G 31 16.09 A Few Clouds FEW080 13 -6 26% 76.25 0.0
06 16:35 NW 20 16.09 Mostly Cloudy BKN080 14 -6 25% 76.25 0.0
06 16:15 NW 20 G 33 14.48 Partly Cloudy SCT075 13 -5 28% 76.28 0.0
06 15:55 NW 20 G 35 16.09 Partly Cloudy SCT080 13 -6 26% 76.28 0.0
06 15:35 NW 28 16.09 Partly Cloudy SCT075 13 -5 28% 76.3 0.0
06 15:15 NW 17 G 30 16.09 Partly Cloudy SCT075 13 -5 28% 76.3 0.0
06 14:55 NW 24 G 35 16.09 Partly Cloudy SCT070 SCT080 13 -5 28% 76.33 0.0
06 14:35 NW 19 G 31 14.48 Mostly Cloudy BKN070 12 -5 30% 76.33 0.0
06 14:15 NW 24 G 33 16.09 Mostly Cloudy BKN070 12 -4 33% 76.33 0.0
06 13:55 NW 22 16.09 Mostly Cloudy BKN070 12 -5 30% 76.33 0.0
06 13:35 NW 26 16.09 Mostly Cloudy BKN070 12 -5 30% 76.35 0.0
06 13:15 W 19 G 33 16.09 Mostly Cloudy BKN070 12 -5 30% 76.35 0.0
06 12:55 NW 19 G 35 16.09 Mostly Cloudy BKN070 12 -5 30% 76.35 0.0
06 12:35 NW 24 G 37 16.09 Mostly Cloudy BKN065 12 -5 30% 76.38 0.0
06 12:15 NW 26 G 43 16.09 Mostly Cloudy BKN065 11 -5 32% 76.38 0.0
06 11:55 NW 24 16.09 Mostly Cloudy BKN060 11 -5 32% 76.38 0.0
06 11:35 Vrbl 7 G 33 16.09 Partly Cloudy SCT060 SCT070 11 -4 35% 76.35 0.0
06 11:15 NW 15 G 26 16.09 Fair CLR 11 -4 35% 76.35 0.0
06 10:55 Vrbl 9 G 26 16.09 Fair CLR 10 -4 37% 9 76.35 0.0
06 10:35 NW 20 16.09 Fair CLR 10 -4 37% 8 76.35 0.0
06 10:15 NW 15 16.09 Fair CLR 9 -4 40% 7 76.35 0.0
06 09:55 N 13 16.09 Fair CLR 9 -4 40% 7 76.35 0.0
06 09:35 N 13 16.09 Fair CLR 9 -3 43% 7 76.35 0.0
06 09:15 N 9 16.09 Fair CLR 9 -4 40% 8 76.33 0.0
06 08:55 N 13 16.09 Fair CLR 8 -3 46% 6 76.33 0.0
06 08:35 N 9 16.09 Fair CLR 7 -3 49% 5 76.3 0.0
06 08:15 NW 13 16.09 Fair CLR 7 -2 53% 5 76.3 0.0
06 07:55 NW 9 16.09 Fair CLR 6 -1 61% 4 76.3 0.0
06 07:35 NW 9 16.09 Fair CLR 5 -1 66% 3 76.28 0.0
06 07:15 NW 9 16.09 Fair CLR 5 -1 66% 3 76.25 0.0
06 06:55 NW 9 16.09 Fair CLR 5 -1 66% 3 76.23 0.0
06 06:35 NW 11 16.09 Fair CLR 4 -2 65% 2 76.2 0.0
06 06:15 NW 13 16.09 Fair CLR 4 -2 65% 1 76.17 0.0
06 05:55 NW 11 16.09 Fair CLR 4 -2 65% 2 76.15 0.0
06 05:35 NW 13 16.09 A Few Clouds FEW150 4 -2 65% 1 76.15 0.0
06 05:15 NW 11 16.09 A Few Clouds FEW150 4 -2 65% 2 76.12 0.0
06 04:55 NW 13 16.09 Partly Cloudy SCT140 SCT160 4 -2 65% 1 76.12 0.0
06 04:35 NW 11 16.09 Mostly Cloudy FEW120 BKN140 4 -2 65% 2 76.1 0.0
06 04:15 NW 9 16.09 Partly Cloudy FEW130 SCT150 SCT170 4 -2 65% 2 76.1 0.0
06 03:55 NW 9 16.09 Mostly Cloudy BKN160 4 -3 61% 2 76.07 0.0
06 03:35 NW 9 16.09 Partly Cloudy SCT160 4 -3 61% 2 76.07 0.0
06 03:15 NW 7 16.09 Partly Cloudy SCT160 5 -3 57% 4 76.07 0.0
06 02:55 N 9 16.09 Fair CLR 5 -3 57% 3 76.07 0.0
06 02:35 N 9 16.09 Fair CLR 6 -3 53% 4 76.07 0.0
06 02:15 NW 15 16.09 A Few Clouds FEW140 6 -3 53% 3 76.1 0.0
06 01:55 NW 13 16.09 Fair CLR 7 -3 49% 5 76.1 0.0
06 01:35 NW 13 16.09 Fair CLR 7 -3 49% 5 76.07 0.0
06 01:15 NW 13 16.09 Fair CLR 7 -3 49% 5 76.07 0.0
06 00:55 NW 13 16.09 Fair CLR 8 -3 46% 6 76.02 0.0
06 00:35 NW 11 16.09 Fair CLR 8 -3 46% 6 76.02 0.0
06 00:15 NW 11 16.09 Fair CLR 7 -3 49% 5 76 0.0
05 23:55 NW 11 16.09 Fair CLR 8 -2 50% 6 76 0.0
05 23:35 Vrbl 9 16.09 A Few Clouds FEW130 9 -3 43% 8 75.97 0.0
05 23:15 N 11 16.09 NULL NULL 9 -3 43% 8 75.97 0.0
05 22:35 N 15 G 30 16.09 Fair CLR 11 -4 35% 75.95 0.0
05 22:15 NW 7 16.09 Fair CLR 10 -3 40% 9 75.95 0.0
05 21:55 NW 11 16.09 Partly Cloudy FEW130 SCT150 11 -3 38% 75.92 0.0
05 21:35 NW 13 16.09 Overcast OVC130 11 -4 35% 75.9 0.0
05 21:15 NW 17 16.09 Mostly Cloudy BKN130 BKN150 12 -5 30% 75.87 0.0
05 20:55 NW 19 G 28 16.09 Fair CLR 12 -5 30% 75.87 0.0
05 20:35 NW 19 16.09 Fair CLR 12 -4 33% 75.84 0.0
05 20:15 NW 13 16.09 Fair CLR 12 -4 33% 75.82 0.0
05 19:55 NW 19 16.09 Fair CLR 13 -5 28% 75.79 0.0
05 19:35 NW 17 G 28 16.09 Fair CLR 13 -4 31% 75.79 0.0
05 19:15 NW 24 16.09 Fair CLR 14 -5 27% 75.79 0.0
05 18:55 NW 22 G 35 16.09 A Few Clouds FEW075 14 -5 27% 75.77 0.0
05 18:35 NW 22 G 31 14.48 A Few Clouds FEW075 FEW160 14 -4 29% 75.77 0.0
05 18:15 NW 28 16.09 Fair CLR 15 -3 29% 75.74 0.0
05 17:55 NW 24 16.09 A Few Clouds FEW140 15 -3 29% 75.77 0.0
05 17:35 W 22 16.09 Fair CLR 15 -2 31% 75.74 0.0
05 17:15 W 19 16.09 Fair CLR 15 -2 31% 75.77 0.0
05 16:55 W 17 16.09 Fair CLR 15 -2 31% 75.77 0.0
05 16:35 W 20 11.27 Fair CLR 14 -2 33% 75.77 0.0
05 16:15 W 17 G 28 16.09 Fair CLR 14 -2 33% 75.79 0.0
05 15:55 W 20 G 30 16.09 Fair CLR 15 -1 34% 75.82 0.0
05 15:35 W 15 16.09 Fair CLR 14 -1 36% 75.84 0.0
05 15:15 W 13 16.09 Fair CLR 14 -1 36% 75.84 0.0
05 14:55 W 11 G 24 16.09 Fair CLR 13 -1 38% 75.87 0.0
05 14:35 W 20 16.09 Fair CLR 13 -1 38% 75.87 0.0
05 14:15 W 20 16.09 Fair CLR 13 -1 38% 75.87 0.0
05 13:55 NW 20 16.09 A Few Clouds FEW060 13 -2 36% 75.9 0.0
05 13:35 W 20 16.09 A Few Clouds FEW060 13 -1 38% 75.9 0.0
05 13:15 W 17 G 26 16.09 Fair CLR 13 -2 36% 75.92 0.0
05 12:55 NW 17 G 28 16.09 A Few Clouds FEW060 13 -2 36% 75.92 0.0
05 12:35 W 13 16.09 Fair CLR 13 -2 36% 75.95 0.0
05 12:15 NW 17 16.09 Fair CLR 13 -2 36% 75.95 0.0
05 11:55 NW 13 16.09 Fair CLR 12 -2 38% 75.92 0.0
05 11:35 NW 13 16.09 Fair CLR 13 -2 36% 75.95 0.0
05 11:15 NE 7 16.09 Fair CLR 12 -2 38% 75.92 0.0
05 10:55 Vrbl 9 16.09 Fair CLR 12 -1 41% 75.92 0.0
05 10:40 N 11 16.09 Fair CLR 12 -1 41% 75.92 0.0
05 10:15 NW 7 16.09 Fair CLR 11 0 47% 75.9 0.0
05 09:55 Vrbl 6 14.48 Fair CLR 10 0 50% 75.92 0.0
05 09:35 W 7 16.09 Fair CLR 10 2 58% 9 75.92 0.0
05 09:15 W 6 16.09 Fair CLR 10 4 67% 75.87 0.0
05 08:55 Calm 16.09 Fair CLR 10 3 62% 75.84 0.0
05 08:35 Calm 16.09 Fair CLR 10 1 54% 75.84 0.0
05 08:15 Calm 16.09 Fair CLR 10 2 58% 75.79 0.0
05 07:55 Calm 16.09 Fair CLR 9 3 66% 75.79 0.0
05 07:35 Calm 16.09 Fair CLR 8 4 76% 75.82 0.0
05 07:15 Calm 16.09 Fair CLR 8 3 71% 75.84 0.0
05 06:55 S 6 16.09 Fair CLR 8 4 76% 75.84 0.0
05 06:35 Calm 16.09 Partly Cloudy FEW150 SCT170 7 4 81% 75.84 0.0
05 06:15 S 9 16.09 Mostly Cloudy SCT150 BKN170 7 4 81% 5 75.84 0.0
05 05:55 S 6 16.09 Mostly Cloudy SCT110 SCT130 BKN160 8 3 71% 75.79 0.0
05 05:35 Calm 16.09 Overcast OVC110 8 2 66% 75.77 0.0
05 05:15 Calm 16.09 Overcast FEW070 OVC110 8 3 71% 75.77 0.0
05 04:55 Calm 16.09 Overcast FEW070 OVC095 8 3 71% 75.72 0.0
05 04:35 Calm 14.48 Overcast FEW028 SCT080 OVC090 8 2 66% 75.72 0.0
05 04:15 NE 9 16.09 Mostly Cloudy FEW031 SCT050 BKN080 9 1 58% 8 75.69 0.0
05 03:55 NE 13 16.09 Mostly Cloudy FEW036 SCT047 BKN055 10 1 54% 8 75.64 0.0
05 03:35 Vrbl 6 16.09 Overcast SCT060 BKN075 OVC085 10 0 50% 75.74 0.0
05 03:15 NE 9 G 20 16.09 Overcast FEW060 OVC085 10 0 50% 9 75.64 0.0
05 02:55 N 13 G 24 16.09 Overcast OVC090 11 0 47% 75.64 0.0
05 02:35 N 17 16.09 Overcast OVC090 11 0 47% 75.62 0.0
05 02:15 N 20 G 33 16.09 Mostly Cloudy BKN095 11 -1 44% 75.64 0.0
05 01:55 N 30 16.09 A Few Clouds FEW110 11 -1 44% 75.59 0.0
05 01:35 N 26 G 37 16.09 Partly Cloudy FEW055 BKN100 SCT120 12 -1 41% 75.57 0.0
05 01:15 NW 26 G 35 16.09 Overcast FEW055 BKN100 OVC120 12 -1 41% 75.59 0.0
05 00:55 N 22 G 37 16.09 Mostly Cloudy BKN110 12 -1 41% 75.59 0.0
05 00:35 N 19 G 33 16.09 Partly Cloudy SCT100 SCT130 12 -1 41% 75.54 0.0
05 00:15 N 22 G 35 16.09 Mostly Cloudy BKN100 BKN120 13 -1 38% 75.51 0.0
04 23:55 NW 20 16.09 Mostly Cloudy BKN120 BKN140 13 0 41% 75.54 0.0
04 23:35 NW 22 16.09 Mostly Cloudy BKN120 13 0 41% 75.49 0.0
04 23:15 NW 19 16.09 A Few Clouds FEW130 13 0 41% 75.49 0.0
04 22:55 NW 24 G 35 16.09 A Few Clouds FEW110 14 -1 36% 75.49 0.0
04 22:35 N 28 G 37 16.09 Fair CLR 14 -1 36% 75.46 0.0
04 22:15 N 24 G 39 16.09 Fair CLR 15 0 36% 75.49 0.0
04 21:55 N 26 G 35 16.09 Fair CLR 16 0 34% 75.44 0.0
04 21:35 N 35 G 52 16.09 Fair and Breezy CLR 16 -1 31% 75.39 0.0
04 21:15 N 28 G 43 16.09 Fair CLR 18 -2 26% 75.36 0.0
04 20:55 N 28 G 37 16.09 Fair CLR 18 -2 26% 75.31 0.0
04 20:40 N 30 G 44 16.09 Fair CLR 19 -1 26% 75.26 0.0
04 19:55 N 28 G 46 14.48 Fair CLR 21 -1 23% 75.16 0.0
04 19:35 N 33 G 46 14.48 Fair and Breezy CLR 22 0 23% 75.13 0.0
04 19:15 N 31 G 44 9.66 Fair with Haze CLR 23 0 22% 75.11 0.0
04 18:55 N 26 G 43 16.09 Fair CLR 24 1 22% 25 75.08 0.0
04 18:35 N 31 G 46 14.48 Fair CLR 25 1 21% 25 75.06 0.0
04 18:15 N 28 G 44 16.09 Fair CLR 26 3 23% 26 75.03 0.0
04 17:55 N 26 16.09 Fair CLR 27 5 24% 26 75.01 0.0
04 17:35 NW 30 G 43 16.09 Fair CLR 27 4 23% 26 75.01 0.0
04 17:15 NW 30 G 44 16.09 Fair CLR 27 0 17% 26 74.98 0.0
04 16:55 W 28 G 46 16.09 Fair CLR 28 1 17% 27 74.98 0.0
04 16:35 W 30 G 39 16.09 Fair CLR 28 3 20% 27 74.96 0.0
04 16:15 W 24 G 41 16.09 Fair CLR 27 4 23% 26 74.98 0.0
04 15:55 NW 26 16.09 Fair CLR 28 5 23% 27 74.96 0.0
04 15:35 W 30 G 46 16.09 Fair CLR 27 5 24% 26 74.98 0.0
04 15:15 W 26 G 39 14.48 Fair CLR 28 5 23% 27 74.98 0.0
04 14:55 W 26 G 39 16.09 Fair CLR 28 6 25% 27 75.01 0.0
04 14:35 W 28 16.09 A Few Clouds FEW085 27 6 26% 26 75.01 0.0
04 14:15 W 24 G 37 16.09 A Few Clouds FEW090 27 5 24% 26 75.03 0.0
04 13:55 W 22 16.09 Fair CLR 27 6 26% 26 75.03 0.0
04 13:35 SW 24 G 43 16.09 Fair CLR 27 5 24% 26 75.03 0.0
04 13:15 W 20 G 31 16.09 Fair CLR 27 5 24% 26 75.03 0.0
04 12:55 W 24 G 35 16.09 Fair CLR 27 6 26% 26 75.03 0.0
04 12:35 SW 17 G 26 16.09 Fair CLR 27 6 26% 26 75.03 0.0
04 12:15 SW 20 16.09 Fair CLR 26 7 30% 26 75.06 0.0
04 11:55 W 17 16.09 Fair CLR 25 9 36% 26 75.06 0.0
04 11:35 SW 17 0.00 Fair CLR 24 10 41% 25 75.06 0.0
04 11:15 SW 17 16.09 Fair CLR 24 10 41% 25 75.08 0.0
04 10:55 SW 20 16.09 Fair CLR 23 9 41% 75.08 0.0
04 10:35 SW 15 16.09 Fair CLR 23 9 41% 75.08 0.0
04 10:15 SW 15 16.09 Fair CLR 22 10 47% 75.11 0.0
04 09:55 SW 17 G 28 16.09 Fair CLR 21 9 46% 75.11 0.0
04 09:35 SW 19 16.09 Fair CLR 21 9 46% 75.11 0.0
04 09:15 SW 20 16.09 Fair CLR 20 8 46% 75.13 0.0
04 08:55 S 11 16.09 Fair CLR 18 9 56% 75.13 0.0
04 08:35 S 15 16.09 Fair CLR 17 7 52% 75.13 0.0
04 08:15 S 15 16.09 Fair CLR 16 7 55% 75.16 0.0
04 07:55 S 15 16.09 Fair CLR 14 6 59% 75.16 0.0
04 07:35 S 15 16.09 Fair CLR 13 5 59% 75.18 0.0
04 07:15 S 13 16.09 Fair CLR 12 5 63% 75.18 0.0
04 06:55 S 13 16.09 Fair CLR 11 5 67% 75.18 0.0
04 06:35 S 13 16.09 Fair CLR 10 4 67% 8 75.21 0.0
04 06:15 S 11 16.09 Fair CLR 11 4 62% 75.21 0.0
04 05:55 S 9 16.09 Fair CLR 11 3 58% 75.21 0.0
04 05:35 S 11 16.09 Fair CLR 12 3 54% 75.23 0.0
Date Time (cdt) Wind (kph) Vis. (km) Weather Sky Cond. Air Dwpt Max. Min. Relative Humidity Wind Chill (°C) Heat Index (°C) altimeter (cm) sea level (mb) 1 hr 3 hr 6 hr
6 hour
Temperature (ºC) Pressure Precipitation (cm)